createdAt,value
2022-11-29T00:01:32.208Z,4.57
2022-11-29T00:04:03.255Z,4.53
2022-11-29T00:06:33.886Z,4.50
2022-11-29T00:09:06.394Z,4.53
2022-11-29T00:11:53.304Z,4.65
2022-11-29T00:14:25.281Z,4.80
2022-11-29T00:16:54.427Z,4.93
2022-11-29T00:19:24.457Z,4.97
2022-11-29T00:21:52.831Z,5.02
2022-11-29T00:24:21.274Z,5.12
2022-11-29T00:26:50.070Z,5.17
2022-11-29T00:29:18.105Z,5.21
2022-11-29T00:31:47.077Z,5.17
2022-11-29T00:34:15.322Z,5.09
2022-11-29T00:36:44.682Z,5.00
2022-11-29T00:39:16.495Z,4.94
2022-11-29T00:41:44.631Z,4.87
2022-11-29T00:44:18.384Z,4.85
2022-11-29T00:46:48.337Z,4.87
2022-11-29T00:49:16.452Z,4.88
2022-11-29T00:51:45.838Z,4.90
2022-11-29T00:54:15.128Z,4.95
2022-11-29T00:56:43.440Z,5.01
2022-11-29T00:59:11.834Z,5.07
2022-11-29T01:01:39.889Z,5.17
2022-11-29T01:04:08.275Z,5.25
2022-11-29T01:06:36.329Z,5.36
2022-11-29T01:09:05.981Z,5.45
2022-11-29T01:11:34.656Z,5.53
2022-11-29T01:14:03.841Z,5.58
2022-11-29T01:16:32.873Z,5.65
2022-11-29T01:19:01.722Z,5.71
2022-11-29T01:21:30.110Z,5.76
2022-11-29T01:23:58.667Z,5.79
2022-11-29T01:26:29.731Z,5.84
2022-11-29T01:28:59.177Z,5.87
2022-11-29T01:31:31.170Z,5.89
2022-11-29T01:34:01.897Z,5.91
2022-11-29T01:36:31.338Z,5.94
2022-11-29T01:39:00.986Z,5.96
2022-11-29T01:41:32.870Z,5.97
2022-11-29T01:44:03.599Z,5.99
2022-11-29T01:46:33.593Z,5.99
2022-11-29T01:49:06.600Z,6.00
2022-11-29T01:51:37.115Z,6.00
2022-11-29T01:54:06.241Z,5.98
2022-11-29T01:56:36.277Z,6.00
2022-11-29T01:59:09.121Z,6.01
2022-11-29T02:01:38.117Z,6.02
2022-11-29T02:04:07.415Z,6.03
2022-11-29T02:06:36.977Z,6.04
2022-11-29T02:09:05.062Z,6.06
2022-11-29T02:11:52.587Z,6.06
2022-11-29T02:14:48.338Z,6.06
2022-11-29T02:17:29.323Z,6.06
2022-11-29T02:20:32.817Z,6.06
2022-11-29T02:23:13.471Z,6.07
2022-11-29T02:25:55.981Z,6.08
2022-11-29T02:28:57.172Z,6.10
2022-11-29T02:31:59.151Z,6.13
2022-11-29T02:34:47.038Z,6.12
2022-11-29T02:37:29.773Z,6.07
2022-11-29T02:40:23.313Z,6.01
2022-11-29T02:43:12.016Z,5.93
2022-11-29T02:46:04.955Z,5.85
2022-11-29T02:48:52.895Z,5.75
2022-11-29T02:51:29.059Z,5.72
2022-11-29T02:54:04.105Z,5.73
2022-11-29T02:56:39.162Z,5.72
2022-11-29T02:59:14.568Z,5.69
2022-11-29T03:01:54.330Z,5.63
2022-11-29T03:04:30.315Z,5.57
2022-11-29T03:07:06.072Z,5.53
2022-11-29T03:09:40.649Z,5.60
2022-11-29T03:12:20.067Z,5.70
2022-11-29T03:14:58.588Z,5.76
2022-11-29T03:17:41.940Z,5.81
2022-11-29T03:20:28.043Z,5.87
2022-11-29T03:23:11.006Z,5.96
2022-11-29T03:25:43.297Z,5.98
2022-11-29T03:28:16.128Z,6.01
2022-11-29T03:30:52.294Z,6.02
2022-11-29T03:33:27.113Z,5.97
2022-11-29T03:36:01.415Z,5.88
2022-11-29T03:38:40.152Z,5.78
2022-11-29T03:41:18.928Z,5.66
2022-11-29T03:43:54.501Z,5.58
2022-11-29T03:46:30.624Z,5.49
2022-11-29T03:49:03.939Z,5.39
2022-11-29T03:51:44.506Z,5.26
2022-11-29T03:54:20.804Z,5.15
2022-11-29T03:56:49.656Z,5.13
2022-11-29T03:59:30.798Z,5.10
2022-11-29T04:02:17.449Z,5.17
2022-11-29T04:05:18.006Z,5.32
2022-11-29T04:07:57.157Z,5.45
2022-11-29T04:10:38.840Z,5.56
2022-11-29T04:13:51.138Z,5.66
2022-11-29T04:16:37.353Z,5.74
2022-11-29T04:19:52.660Z,5.79
2022-11-29T04:22:53.645Z,5.82
2022-11-29T04:25:49.381Z,5.86
2022-11-29T04:28:44.585Z,5.86
2022-11-29T04:31:24.243Z,5.88
2022-11-29T04:34:19.238Z,5.89
2022-11-29T04:37:19.598Z,5.91
2022-11-29T04:40:21.109Z,5.91
2022-11-29T04:43:46.695Z,5.95
2022-11-29T04:46:33.064Z,6.00
2022-11-29T04:49:16.314Z,5.97
2022-11-29T04:52:00.058Z,5.95
2022-11-29T04:54:35.933Z,5.89
2022-11-29T04:57:10.115Z,5.81
2022-11-29T04:59:46.202Z,5.76
2022-11-29T05:02:30.391Z,5.77
2022-11-29T05:05:05.274Z,5.80
2022-11-29T05:07:40.825Z,5.83
2022-11-29T05:10:25.552Z,5.87
2022-11-29T05:13:05.018Z,5.90
2022-11-29T05:16:09.189Z,5.91
2022-11-29T05:19:13.064Z,5.89
2022-11-29T05:21:50.726Z,5.85
2022-11-29T05:24:33.414Z,5.77
2022-11-29T05:27:07.574Z,5.74
2022-11-29T05:29:42.539Z,5.72
2022-11-29T05:32:35.369Z,5.64
2022-11-29T05:35:51.565Z,5.62
2022-11-29T05:38:38.831Z,5.69
2022-11-29T05:41:19.344Z,5.74
2022-11-29T05:43:56.748Z,5.75
2022-11-29T05:46:31.403Z,5.78
2022-11-29T05:49:11.664Z,5.81
2022-11-29T05:51:44.441Z,5.87
2022-11-29T05:54:27.679Z,5.91
2022-11-29T05:57:06.690Z,5.96
2022-11-29T05:59:39.293Z,6.00
2022-11-29T06:02:21.186Z,6.01
2022-11-29T06:04:59.396Z,6.03
2022-11-29T06:07:38.650Z,6.05
2022-11-29T06:10:12.264Z,6.07
2022-11-29T06:12:43.714Z,6.09
2022-11-29T06:15:31.654Z,6.10
2022-11-29T06:18:13.640Z,6.09
2022-11-29T06:20:53.565Z,6.05
2022-11-29T06:23:48.558Z,6.01
2022-11-29T06:26:34.340Z,6.01
2022-11-29T06:29:22.396Z,5.96
2022-11-29T06:31:55.478Z,5.95
2022-11-29T06:34:34.357Z,5.98
2022-11-29T06:37:14.431Z,6.03
2022-11-29T06:39:44.519Z,6.05
2022-11-29T06:42:12.247Z,6.09
2022-11-29T06:44:40.810Z,6.10
2022-11-29T06:47:14.968Z,6.12
2022-11-29T06:49:49.284Z,6.14
2022-11-29T06:52:26.473Z,6.16
2022-11-29T06:55:16.580Z,6.20
2022-11-29T06:58:01.647Z,6.17
2022-11-29T07:00:38.649Z,6.17
2022-11-29T07:03:19.950Z,6.18
2022-11-29T07:05:48.694Z,6.16
2022-11-29T07:08:19.884Z,6.16
2022-11-29T07:10:53.154Z,6.12
2022-11-29T07:13:22.446Z,6.04
2022-11-29T07:16:02.769Z,5.98
2022-11-29T07:18:41.591Z,5.95
2022-11-29T07:21:20.842Z,5.97
2022-11-29T07:24:02.371Z,6.01
2022-11-29T07:26:39.541Z,6.04
2022-11-29T07:29:25.119Z,6.05
2022-11-29T07:32:04.574Z,6.02
2022-11-29T07:34:41.484Z,6.00
2022-11-29T07:37:21.549Z,5.98
2022-11-29T07:39:56.663Z,6.01
2022-11-29T07:42:33.165Z,6.05
2022-11-29T07:45:07.441Z,6.08
2022-11-29T07:47:36.258Z,6.11
2022-11-29T07:50:07.525Z,6.15
2022-11-29T07:52:35.650Z,6.19
2022-11-29T07:55:05.201Z,6.23
2022-11-29T07:57:36.703Z,6.25
2022-11-29T08:00:05.929Z,6.25
2022-11-29T08:02:34.723Z,6.27
2022-11-29T08:05:03.978Z,6.31
2022-11-29T08:07:36.502Z,6.34
2022-11-29T08:10:06.782Z,6.34
2022-11-29T08:12:35.988Z,6.36
2022-11-29T08:15:04.984Z,6.38
2022-11-29T08:17:33.136Z,6.40
2022-11-29T08:20:04.171Z,6.41
2022-11-29T08:22:32.600Z,6.43
2022-11-29T08:25:01.653Z,6.46
2022-11-29T08:27:31.079Z,6.49
2022-11-29T08:30:00.525Z,6.51
2022-11-29T08:32:29.034Z,6.55
2022-11-29T08:34:57.072Z,6.61
2022-11-29T08:37:25.050Z,6.66
2022-11-29T08:39:53.021Z,6.71
2022-11-29T08:42:21.327Z,6.75
2022-11-29T08:44:49.384Z,6.79
2022-11-29T08:47:36.052Z,6.82
2022-11-29T08:50:07.833Z,6.83
2022-11-29T08:52:55.106Z,6.85
2022-11-29T08:55:26.062Z,6.85
2022-11-29T08:57:55.991Z,6.82
2022-11-29T09:00:25.229Z,6.80
2022-11-29T09:02:54.653Z,6.80
2022-11-29T09:05:22.757Z,6.80
2022-11-29T09:07:50.924Z,6.81
2022-11-29T09:10:18.986Z,6.83
2022-11-29T09:12:49.678Z,6.84
2022-11-29T09:15:17.849Z,6.85
2022-11-29T09:17:45.912Z,6.85
2022-11-29T09:20:15.493Z,6.88
2022-11-29T09:22:43.535Z,6.91
2022-11-29T09:25:12.265Z,6.93
2022-11-29T09:27:41.777Z,6.98
2022-11-29T09:30:11.047Z,7.02
2022-11-29T09:32:39.330Z,7.05
2022-11-29T09:35:08.221Z,7.08
2022-11-29T09:37:38.093Z,7.13
2022-11-29T09:40:07.692Z,7.17
2022-11-29T09:42:45.350Z,7.27
2022-11-29T09:45:18.581Z,7.33
2022-11-29T09:48:12.866Z,7.41
2022-11-29T09:50:48.817Z,7.49
2022-11-29T09:53:35.421Z,7.58
2022-11-29T09:56:19.793Z,7.66
2022-11-29T09:58:51.667Z,7.73
2022-11-29T10:01:24.609Z,7.82
2022-11-29T10:03:56.106Z,7.93
2022-11-29T10:06:29.423Z,8.04
2022-11-29T10:09:03.333Z,8.13
2022-11-29T10:11:38.366Z,8.21
2022-11-29T10:14:13.388Z,8.30
2022-11-29T10:16:47.641Z,8.40
2022-11-29T10:19:23.380Z,8.46
2022-11-29T10:22:00.499Z,8.46
2022-11-29T10:24:30.856Z,8.48
2022-11-29T10:26:59.153Z,8.53
2022-11-29T10:29:27.341Z,8.56
2022-11-29T10:31:56.969Z,8.59
2022-11-29T10:34:26.802Z,8.59
2022-11-29T10:36:59.532Z,8.59
2022-11-29T10:39:42.247Z,8.60
2022-11-29T10:42:36.249Z,8.62
2022-11-29T10:45:06.014Z,8.64
2022-11-29T10:47:34.408Z,8.64
2022-11-29T10:50:02.436Z,8.67
2022-11-29T10:52:30.409Z,8.71
2022-11-29T10:55:01.306Z,8.71
2022-11-29T10:57:29.297Z,8.68
2022-11-29T11:00:04.071Z,8.64
2022-11-29T11:02:32.883Z,8.59
2022-11-29T11:05:01.795Z,8.58
2022-11-29T11:07:33.855Z,8.57
2022-11-29T11:10:05.794Z,8.55
2022-11-29T11:12:36.962Z,8.51
2022-11-29T11:15:18.666Z,8.46
2022-11-29T11:17:58.393Z,8.43
2022-11-29T11:20:28.736Z,8.38
2022-11-29T11:23:01.239Z,8.42
2022-11-29T11:25:34.746Z,8.48
2022-11-29T11:28:18.108Z,8.60
2022-11-29T11:30:52.727Z,8.73
2022-11-29T11:33:22.969Z,8.83
2022-11-29T11:36:01.941Z,8.98
2022-11-29T11:38:30.276Z,9.10
2022-11-29T11:41:06.489Z,9.20
2022-11-29T11:43:35.648Z,9.40
2022-11-29T11:46:05.127Z,9.64
2022-11-29T11:48:37.175Z,9.82
2022-11-29T11:51:05.364Z,10.03
2022-11-29T11:53:36.615Z,10.13
2022-11-29T11:56:09.090Z,10.19
2022-11-29T11:58:40.478Z,10.23
2022-11-29T12:01:17.623Z,10.25
2022-11-29T12:03:51.983Z,10.19
2022-11-29T12:06:37.432Z,10.06
2022-11-29T12:09:14.016Z,9.95
2022-11-29T12:11:50.400Z,9.88
2022-11-29T12:14:28.322Z,9.90
2022-11-29T12:17:04.893Z,9.86
2022-11-29T12:19:40.837Z,9.79
2022-11-29T12:22:24.004Z,9.64
2022-11-29T12:25:13.613Z,9.51
2022-11-29T12:28:00.677Z,9.36
2022-11-29T12:30:35.641Z,9.25
2022-11-29T12:33:29.880Z,9.26
2022-11-29T12:36:23.990Z,9.27
2022-11-29T12:39:12.767Z,9.35
2022-11-29T12:42:04.404Z,9.42
2022-11-29T12:44:46.075Z,9.47
2022-11-29T12:47:35.660Z,9.58
2022-11-29T12:50:18.564Z,9.65
2022-11-29T12:52:53.615Z,9.74
2022-11-29T12:55:26.373Z,9.77
2022-11-29T12:58:04.470Z,9.79
2022-11-29T13:00:43.498Z,9.80
2022-11-29T13:03:27.100Z,9.83
2022-11-29T13:06:10.155Z,9.78
2022-11-29T13:08:55.256Z,9.69
2022-11-29T13:11:28.798Z,9.67
2022-11-29T13:14:34.624Z,9.70
2022-11-29T13:16:58.904Z,9.69
2022-11-29T13:19:36.523Z,9.67
2022-11-29T13:22:13.229Z,9.65
2022-11-29T13:24:48.056Z,9.67
2022-11-29T13:27:28.026Z,9.66
2022-11-29T13:29:57.232Z,9.62
2022-11-29T13:32:41.201Z,9.62
2022-11-29T13:35:20.294Z,9.63
2022-11-29T13:37:55.290Z,9.62
2022-11-29T13:40:39.315Z,9.63
2022-11-29T13:43:17.207Z,9.64
2022-11-29T13:45:53.204Z,9.63
2022-11-29T13:48:35.168Z,9.60
2022-11-29T13:51:26.048Z,9.54
2022-11-29T13:53:55.618Z,9.47
2022-11-29T13:56:29.917Z,9.38
2022-11-29T13:58:59.077Z,9.32
2022-11-29T14:01:27.769Z,9.26
2022-11-29T14:04:31.757Z,9.23
2022-11-29T14:07:08.976Z,9.17
2022-11-29T14:09:46.088Z,9.14
2022-11-29T14:12:29.001Z,9.12
2022-11-29T14:15:01.986Z,9.07
2022-11-29T14:17:48.009Z,9.09
2022-11-29T14:20:52.291Z,9.08
2022-11-29T14:23:38.032Z,9.06
2022-11-29T14:26:31.636Z,9.04
2022-11-29T14:29:00.861Z,9.02
2022-11-29T14:31:52.309Z,8.97
2022-11-29T14:34:46.925Z,8.91
2022-11-29T14:37:29.575Z,8.84
2022-11-29T14:40:03.561Z,8.79
2022-11-29T14:42:32.954Z,8.75
2022-11-29T14:45:05.036Z,8.70
2022-11-29T14:47:36.988Z,8.65
2022-11-29T14:50:10.078Z,8.59
2022-11-29T14:52:40.744Z,8.54
2022-11-29T14:55:31.419Z,8.46
2022-11-29T14:58:18.875Z,8.41
2022-11-29T15:01:12.102Z,8.37
2022-11-29T15:03:51.199Z,8.33
2022-11-29T15:06:27.680Z,8.28
2022-11-29T15:09:03.616Z,8.21
2022-11-29T15:11:47.940Z,8.15
2022-11-29T15:14:24.366Z,8.10
2022-11-29T15:17:05.080Z,8.05
2022-11-29T15:19:52.402Z,7.99
2022-11-29T15:22:22.520Z,7.94
2022-11-29T15:24:51.116Z,7.89
2022-11-29T15:27:20.956Z,7.83
2022-11-29T15:29:49.539Z,7.79
2022-11-29T15:32:25.830Z,7.72
2022-11-29T15:34:55.864Z,7.66
2022-11-29T15:37:26.711Z,7.60
2022-11-29T15:40:09.691Z,7.54
2022-11-29T15:42:45.833Z,7.49
2022-11-29T15:45:41.201Z,7.42
2022-11-29T15:48:15.320Z,7.37
2022-11-29T15:50:50.656Z,7.29
2022-11-29T15:53:22.864Z,7.21
2022-11-29T15:55:53.795Z,7.14
2022-11-29T15:58:23.651Z,7.07
2022-11-29T16:00:52.833Z,6.99
2022-11-29T16:03:26.342Z,6.90
2022-11-29T16:06:05.753Z,6.83
2022-11-29T16:08:38.064Z,6.74
2022-11-29T16:11:07.813Z,6.66
2022-11-29T16:13:39.654Z,6.60
2022-11-29T16:16:12.840Z,6.52
2022-11-29T16:18:43.040Z,6.44
2022-11-29T16:21:23.431Z,6.39
2022-11-29T16:23:51.484Z,6.35
2022-11-29T16:26:23.873Z,6.28
2022-11-29T16:28:56.419Z,6.22
2022-11-29T16:31:33.135Z,6.17
2022-11-29T16:34:09.248Z,6.13
2022-11-29T16:36:37.354Z,6.08
2022-11-29T16:39:08.705Z,6.02
2022-11-29T16:41:38.986Z,5.97
2022-11-29T16:44:28.125Z,5.94
2022-11-29T16:47:12.194Z,5.90
2022-11-29T16:49:40.383Z,5.85
2022-11-29T16:52:25.582Z,5.79
2022-11-29T16:54:54.082Z,5.74
2022-11-29T16:57:22.433Z,5.70
2022-11-29T16:59:52.173Z,5.67
2022-11-29T17:02:20.391Z,5.63
2022-11-29T17:04:48.777Z,5.59
2022-11-29T17:07:23.244Z,5.56
2022-11-29T17:09:52.464Z,5.53
2022-11-29T17:12:20.614Z,5.47
2022-11-29T17:14:48.949Z,5.44
2022-11-29T17:17:19.716Z,5.39
2022-11-29T17:19:49.068Z,5.35
2022-11-29T17:22:17.101Z,5.32
2022-11-29T17:24:48.386Z,5.30
2022-11-29T17:27:16.881Z,5.25
2022-11-29T17:29:44.934Z,5.23
2022-11-29T17:32:12.997Z,5.21
2022-11-29T17:34:42.422Z,5.18
2022-11-29T17:37:10.432Z,5.15
2022-11-29T17:39:38.446Z,5.13
2022-11-29T17:42:06.509Z,5.13
2022-11-29T17:44:34.868Z,5.11
2022-11-29T17:47:02.885Z,5.12
2022-11-29T17:49:30.939Z,5.11
2022-11-29T17:52:00.350Z,5.10
2022-11-29T17:54:28.462Z,5.11
2022-11-29T17:56:56.519Z,5.10
2022-11-29T17:59:24.481Z,5.07
2022-11-29T18:01:52.572Z,5.11
2022-11-29T18:04:20.852Z,5.13
2022-11-29T18:06:50.870Z,5.17
2022-11-29T18:09:20.835Z,5.19
2022-11-29T18:11:50.497Z,5.20
2022-11-29T18:14:20.660Z,5.21
2022-11-29T18:16:48.714Z,5.23
2022-11-29T18:19:19.896Z,5.24
2022-11-29T18:21:49.714Z,5.29
2022-11-29T18:24:17.737Z,5.32
2022-11-29T18:26:47.179Z,5.35
2022-11-29T18:29:15.349Z,5.39
2022-11-29T18:31:46.080Z,5.41
2022-11-29T18:34:16.175Z,5.42
2022-11-29T18:36:45.870Z,5.43
2022-11-29T18:39:15.604Z,5.45
2022-11-29T18:41:45.072Z,5.43
2022-11-29T18:44:19.060Z,5.40
2022-11-29T18:46:47.759Z,5.37
2022-11-29T18:49:18.320Z,5.33
2022-11-29T18:51:47.565Z,5.33
2022-11-29T18:54:16.979Z,5.31
2022-11-29T18:56:46.300Z,5.29
2022-11-29T18:59:17.744Z,5.28
2022-11-29T19:01:48.297Z,5.26
2022-11-29T19:04:18.586Z,5.26
2022-11-29T19:06:47.296Z,5.25
2022-11-29T19:09:17.449Z,5.25
2022-11-29T19:11:46.521Z,5.26
2022-11-29T19:14:16.287Z,5.25
2022-11-29T19:16:46.232Z,5.22
2022-11-29T19:19:18.776Z,5.18
2022-11-29T19:21:46.826Z,5.17
2022-11-29T19:24:17.984Z,5.15
2022-11-29T19:26:47.995Z,5.12
2022-11-29T19:29:18.221Z,5.10
2022-11-29T19:31:46.018Z,5.09
2022-11-29T19:34:14.079Z,5.07
2022-11-29T19:36:44.989Z,5.03
2022-11-29T19:39:15.439Z,5.00
2022-11-29T19:41:44.863Z,4.99
2022-11-29T19:44:13.483Z,4.96
2022-11-29T19:46:46.054Z,4.96
2022-11-29T19:49:14.465Z,4.96
2022-11-29T19:51:42.863Z,4.94
2022-11-29T19:54:12.258Z,4.93
2022-11-29T19:56:41.088Z,4.92
2022-11-29T19:59:10.079Z,4.91
2022-11-29T20:01:41.345Z,4.88
2022-11-29T20:04:13.502Z,4.88
2022-11-29T20:06:42.059Z,4.86
2022-11-29T20:09:10.176Z,4.87
2022-11-29T20:11:38.374Z,4.85
2022-11-29T20:14:08.348Z,4.85
2022-11-29T20:16:38.109Z,4.83
2022-11-29T20:19:11.843Z,4.80
2022-11-29T20:21:43.559Z,4.78
2022-11-29T20:24:13.325Z,4.75
2022-11-29T20:26:42.810Z,4.74
2022-11-29T20:29:11.489Z,4.71
2022-11-29T20:31:47.596Z,4.70
2022-11-29T20:34:19.659Z,4.68
2022-11-29T20:37:07.566Z,4.67
2022-11-29T20:39:47.129Z,4.63
2022-11-29T20:42:45.218Z,4.58
2022-11-29T20:45:15.499Z,4.56
2022-11-29T20:47:51.476Z,4.53
2022-11-29T20:50:24.041Z,4.51
2022-11-29T20:53:04.664Z,4.50
2022-11-29T20:55:42.527Z,4.51
2022-11-29T20:58:19.685Z,4.49
2022-11-29T21:00:48.031Z,4.48
2022-11-29T21:03:16.683Z,4.47
2022-11-29T21:05:56.284Z,4.44
2022-11-29T21:08:39.989Z,4.41
2022-11-29T21:11:13.426Z,4.39
2022-11-29T21:13:42.640Z,4.37
2022-11-29T21:16:12.902Z,4.37
2022-11-29T21:18:41.443Z,4.38
2022-11-29T21:21:24.136Z,4.37
2022-11-29T21:24:02.303Z,4.37
2022-11-29T21:26:56.720Z,4.39
2022-11-29T21:29:25.669Z,4.38
2022-11-29T21:31:55.525Z,4.37
2022-11-29T21:34:41.885Z,4.36
2022-11-29T21:37:13.832Z,4.36
2022-11-29T21:39:43.489Z,4.36
2022-11-29T21:42:20.600Z,4.36
2022-11-29T21:45:13.288Z,4.35
2022-11-29T21:47:43.982Z,4.37
2022-11-29T21:50:14.588Z,4.35
2022-11-29T21:52:44.482Z,4.35
2022-11-29T21:55:12.667Z,4.35
2022-11-29T21:57:40.654Z,4.34
2022-11-29T22:00:10.046Z,4.32
2022-11-29T22:02:38.298Z,4.34
2022-11-29T22:05:08.015Z,4.34
2022-11-29T22:07:36.364Z,4.35
2022-11-29T22:10:13.139Z,4.31
2022-11-29T22:12:51.324Z,4.35
2022-11-29T22:15:24.444Z,4.34
2022-11-29T22:17:53.109Z,4.34
2022-11-29T22:20:21.196Z,4.34
2022-11-29T22:22:49.437Z,4.35
2022-11-29T22:25:19.810Z,4.35
2022-11-29T22:27:50.708Z,4.35
2022-11-29T22:30:19.280Z,4.35
2022-11-29T22:32:47.515Z,4.36
2022-11-29T22:35:16.034Z,4.37
2022-11-29T22:37:44.061Z,4.42
2022-11-29T22:40:14.010Z,4.46
2022-11-29T22:42:43.513Z,4.48
2022-11-29T22:45:12.519Z,4.50
2022-11-29T22:47:40.539Z,4.50
2022-11-29T22:50:09.492Z,4.50
2022-11-29T22:52:37.874Z,4.49
2022-11-29T22:55:06.904Z,4.46
2022-11-29T22:57:34.877Z,4.44
2022-11-29T23:00:05.815Z,4.44
2022-11-29T23:02:33.847Z,4.44
2022-11-29T23:05:01.961Z,4.41
2022-11-29T23:07:30.149Z,4.38
2022-11-29T23:10:00.597Z,4.34
2022-11-29T23:12:29.143Z,4.29
2022-11-29T23:14:57.661Z,4.25
2022-11-29T23:17:28.362Z,4.22
2022-11-29T23:19:56.688Z,4.19
2022-11-29T23:22:24.703Z,4.16
2022-11-29T23:24:52.723Z,4.11
2022-11-29T23:27:22.151Z,4.07
2022-11-29T23:29:50.161Z,4.01
2022-11-29T23:32:18.235Z,3.96
2022-11-29T23:34:47.893Z,3.90
2022-11-29T23:37:16.156Z,3.84
2022-11-29T23:39:44.148Z,3.80
2022-11-29T23:42:12.304Z,3.75
2022-11-29T23:44:40.289Z,3.70
2022-11-29T23:47:09.673Z,3.66
2022-11-29T23:49:39.944Z,3.61
2022-11-29T23:52:09.330Z,3.55
2022-11-29T23:54:37.785Z,3.51
2022-11-29T23:57:05.919Z,3.46
2022-11-29T23:59:34.074Z,3.42
